sensor_id;sensor_type;location;lat;lon;timestamp;P1;durP1;ratioP1;P2;durP2;ratioP2
20012;SDS011;10167;42.852;23.042;2022-08-18T00:02:11;3.33;;;2.22;;
20012;SDS011;10167;42.852;23.042;2022-08-18T00:09:44;3.85;;;2.03;;
20012;SDS011;10167;42.852;23.042;2022-08-18T00:12:14;3.97;;;2.22;;
20012;SDS011;10167;42.852;23.042;2022-08-18T00:14:43;4.47;;;2.35;;
20012;SDS011;10167;42.852;23.042;2022-08-18T00:17:12;4.47;;;2.28;;
20012;SDS011;10167;42.852;23.042;2022-08-18T00:19:41;5.82;;;2.35;;
20012;SDS011;10167;42.852;23.042;2022-08-18T00:22:14;7.03;;;2.45;;
20012;SDS011;10167;42.852;23.042;2022-08-18T00:24:48;5.75;;;2.63;;
20012;SDS011;10167;42.852;23.042;2022-08-18T00:31:55;3.35;;;2.22;;
20012;SDS011;10167;42.852;23.042;2022-08-18T00:34:23;4.68;;;2.30;;
20012;SDS011;10167;42.852;23.042;2022-08-18T00:36:51;3.63;;;2.50;;
20012;SDS011;10167;42.852;23.042;2022-08-18T00:39:18;4.88;;;2.72;;
20012;SDS011;10167;42.852;23.042;2022-08-18T00:41:46;4.22;;;2.20;;
20012;SDS011;10167;42.852;23.042;2022-08-18T00:44:13;4.43;;;2.38;;
20012;SDS011;10167;42.852;23.042;2022-08-18T00:46:41;4.47;;;2.80;;
20012;SDS011;10167;42.852;23.042;2022-08-18T00:54:13;3.60;;;2.22;;
20012;SDS011;10167;42.852;23.042;2022-08-18T00:56:44;5.07;;;2.88;;
20012;SDS011;10167;42.852;23.042;2022-08-18T00:59:15;5.32;;;2.38;;
20012;SDS011;10167;42.852;23.042;2022-08-18T01:01:47;4.38;;;2.58;;
20012;SDS011;10167;42.852;23.042;2022-08-18T01:04:17;3.92;;;2.33;;
20012;SDS011;10167;42.852;23.042;2022-08-18T01:06:49;2.28;;;1.85;;
20012;SDS011;10167;42.852;23.042;2022-08-18T01:09:21;4.28;;;2.25;;
20012;SDS011;10167;42.852;23.042;2022-08-18T01:16:53;4.05;;;2.67;;
20012;SDS011;10167;42.852;23.042;2022-08-18T01:19:43;3.55;;;2.33;;
20012;SDS011;10167;42.852;23.042;2022-08-18T01:22:35;4.38;;;2.85;;
20012;SDS011;10167;42.852;23.042;2022-08-18T01:25:08;3.63;;;2.47;;
20012;SDS011;10167;42.852;23.042;2022-08-18T01:27:54;3.25;;;2.10;;
20012;SDS011;10167;42.852;23.042;2022-08-18T01:30:26;6.25;;;2.03;;
20012;SDS011;10167;42.852;23.042;2022-08-18T01:35:48;3.33;;;2.75;;
20012;SDS011;10167;42.852;23.042;2022-08-18T01:38:15;3.63;;;2.63;;
20012;SDS011;10167;42.852;23.042;2022-08-18T01:40:45;3.40;;;2.08;;
20012;SDS011;10167;42.852;23.042;2022-08-18T01:43:33;4.82;;;2.22;;
20012;SDS011;10167;42.852;23.042;2022-08-18T01:46:01;3.05;;;2.08;;
20012;SDS011;10167;42.852;23.042;2022-08-18T01:48:30;4.47;;;2.80;;
20012;SDS011;10167;42.852;23.042;2022-08-18T01:51:00;3.83;;;2.50;;
20012;SDS011;10167;42.852;23.042;2022-08-18T01:58:34;6.88;;;2.63;;
20012;SDS011;10167;42.852;23.042;2022-08-18T02:01:03;5.63;;;3.10;;
20012;SDS011;10167;42.852;23.042;2022-08-18T02:03:33;4.57;;;2.05;;
20012;SDS011;10167;42.852;23.042;2022-08-18T02:06:03;3.22;;;2.33;;
20012;SDS011;10167;42.852;23.042;2022-08-18T02:08:35;4.80;;;2.42;;
20012;SDS011;10167;42.852;23.042;2022-08-18T02:11:07;3.25;;;2.22;;
20012;SDS011;10167;42.852;23.042;2022-08-18T02:13:36;4.68;;;2.60;;
20012;SDS011;10167;42.852;23.042;2022-08-18T02:19:10;5.22;;;3.13;;
20012;SDS011;10167;42.852;23.042;2022-08-18T02:21:38;6.38;;;2.47;;
20012;SDS011;10167;42.852;23.042;2022-08-18T02:24:05;4.07;;;2.72;;
20012;SDS011;10167;42.852;23.042;2022-08-18T02:26:33;5.35;;;2.90;;
20012;SDS011;10167;42.852;23.042;2022-08-18T02:29:00;3.83;;;2.80;;
20012;SDS011;10167;42.852;23.042;2022-08-18T02:31:27;4.15;;;2.75;;
20012;SDS011;10167;42.852;23.042;2022-08-18T02:33:55;3.40;;;2.35;;
20012;SDS011;10167;42.852;23.042;2022-08-18T02:41:22;5.15;;;2.63;;
20012;SDS011;10167;42.852;23.042;2022-08-18T02:43:55;3.58;;;2.30;;
20012;SDS011;10167;42.852;23.042;2022-08-18T02:46:23;3.47;;;2.75;;
20012;SDS011;10167;42.852;23.042;2022-08-18T02:48:56;4.07;;;2.30;;
20012;SDS011;10167;42.852;23.042;2022-08-18T02:51:23;4.07;;;2.72;;
20012;SDS011;10167;42.852;23.042;2022-08-18T02:53:52;9.98;;;3.17;;
20012;SDS011;10167;42.852;23.042;2022-08-18T02:56:21;5.57;;;2.83;;
20012;SDS011;10167;42.852;23.042;2022-08-18T03:04:12;4.28;;;2.75;;
20012;SDS011;10167;42.852;23.042;2022-08-18T03:06:42;7.63;;;3.15;;
20012;SDS011;10167;42.852;23.042;2022-08-18T03:09:11;5.85;;;2.58;;
20012;SDS011;10167;42.852;23.042;2022-08-18T03:11:40;2.97;;;2.08;;
20012;SDS011;10167;42.852;23.042;2022-08-18T03:14:09;5.65;;;2.75;;
20012;SDS011;10167;42.852;23.042;2022-08-18T03:16:38;5.22;;;2.53;;
20012;SDS011;10167;42.852;23.042;2022-08-18T03:19:20;4.35;;;2.63;;
20012;SDS011;10167;42.852;23.042;2022-08-18T03:26:53;3.58;;;2.33;;
20012;SDS011;10167;42.852;23.042;2022-08-18T03:29:22;3.95;;;2.60;;
20012;SDS011;10167;42.852;23.042;2022-08-18T03:31:56;4.80;;;2.33;;
20012;SDS011;10167;42.852;23.042;2022-08-18T03:34:24;4.57;;;2.67;;
20012;SDS011;10167;42.852;23.042;2022-08-18T03:36:52;5.13;;;2.55;;
20012;SDS011;10167;42.852;23.042;2022-08-18T03:39:19;2.83;;;2.05;;
20012;SDS011;10167;42.852;23.042;2022-08-18T03:41:49;4.28;;;2.45;;
20012;SDS011;10167;42.852;23.042;2022-08-18T03:48:55;17.17;;;2.97;;
20012;SDS011;10167;42.852;23.042;2022-08-18T03:51:24;7.55;;;4.13;;
20012;SDS011;10167;42.852;23.042;2022-08-18T03:53:54;4.25;;;2.63;;
20012;SDS011;10167;42.852;23.042;2022-08-18T03:56:26;4.15;;;2.85;;
20012;SDS011;10167;42.852;23.042;2022-08-18T03:58:59;5.25;;;3.00;;
20012;SDS011;10167;42.852;23.042;2022-08-18T04:01:29;3.88;;;2.50;;
20012;SDS011;10167;42.852;23.042;2022-08-18T04:03:59;3.05;;;2.50;;
20012;SDS011;10167;42.852;23.042;2022-08-18T04:11:33;6.22;;;3.63;;
20012;SDS011;10167;42.852;23.042;2022-08-18T04:14:03;5.57;;;3.13;;
20012;SDS011;10167;42.852;23.042;2022-08-18T04:16:31;4.63;;;2.80;;
20012;SDS011;10167;42.852;23.042;2022-08-18T04:19:01;3.97;;;2.47;;
20012;SDS011;10167;42.852;23.042;2022-08-18T04:21:29;4.50;;;3.05;;
20012;SDS011;10167;42.852;23.042;2022-08-18T04:23:58;4.57;;;3.10;;
20012;SDS011;10167;42.852;23.042;2022-08-18T04:26:30;3.88;;;2.88;;
20012;SDS011;10167;42.852;23.042;2022-08-18T04:33:59;4.88;;;2.55;;
20012;SDS011;10167;42.852;23.042;2022-08-18T04:36:28;5.05;;;3.13;;
20012;SDS011;10167;42.852;23.042;2022-08-18T04:38:57;4.05;;;2.63;;
20012;SDS011;10167;42.852;23.042;2022-08-18T04:41:25;4.70;;;2.85;;
20012;SDS011;10167;42.852;23.042;2022-08-18T04:43:53;6.22;;;3.13;;
20012;SDS011;10167;42.852;23.042;2022-08-18T04:46:20;6.82;;;3.15;;
20012;SDS011;10167;42.852;23.042;2022-08-18T04:48:50;4.00;;;2.88;;
20012;SDS011;10167;42.852;23.042;2022-08-18T04:56:00;4.35;;;2.85;;
20012;SDS011;10167;42.852;23.042;2022-08-18T04:58:27;3.63;;;3.03;;
20012;SDS011;10167;42.852;23.042;2022-08-18T05:00:56;10.35;;;3.00;;
20012;SDS011;10167;42.852;23.042;2022-08-18T05:03:25;4.78;;;3.17;;
20012;SDS011;10167;42.852;23.042;2022-08-18T05:05:53;4.82;;;3.28;;
20012;SDS011;10167;42.852;23.042;2022-08-18T05:08:23;4.88;;;2.95;;
20012;SDS011;10167;42.852;23.042;2022-08-18T05:10:52;10.13;;;3.20;;
20012;SDS011;10167;42.852;23.042;2022-08-18T05:18:23;4.07;;;2.90;;
20012;SDS011;10167;42.852;23.042;2022-08-18T05:20:53;4.43;;;2.92;;
20012;SDS011;10167;42.852;23.042;2022-08-18T05:23:22;7.97;;;3.22;;
20012;SDS011;10167;42.852;23.042;2022-08-18T05:25:55;8.75;;;3.08;;
20012;SDS011;10167;42.852;23.042;2022-08-18T05:28:23;4.15;;;3.03;;
20012;SDS011;10167;42.852;23.042;2022-08-18T05:30:51;5.18;;;2.75;;
20012;SDS011;10167;42.852;23.042;2022-08-18T05:33:19;3.92;;;2.53;;
20012;SDS011;10167;42.852;23.042;2022-08-18T05:41:07;7.35;;;2.42;;
20012;SDS011;10167;42.852;23.042;2022-08-18T05:43:41;4.13;;;3.20;;
20012;SDS011;10167;42.852;23.042;2022-08-18T05:46:18;4.43;;;2.60;;
20012;SDS011;10167;42.852;23.042;2022-08-18T05:48:50;4.43;;;2.70;;
20012;SDS011;10167;42.852;23.042;2022-08-18T05:51:18;3.83;;;2.85;;
20012;SDS011;10167;42.852;23.042;2022-08-18T05:53:52;5.68;;;2.72;;
20012;SDS011;10167;42.852;23.042;2022-08-18T06:01:59;4.50;;;2.88;;
20012;SDS011;10167;42.852;23.042;2022-08-18T06:04:36;5.45;;;3.42;;
20012;SDS011;10167;42.852;23.042;2022-08-18T06:07:09;4.18;;;2.80;;
20012;SDS011;10167;42.852;23.042;2022-08-18T06:09:42;3.78;;;2.72;;
20012;SDS011;10167;42.852;23.042;2022-08-18T06:12:18;3.88;;;2.90;;
20012;SDS011;10167;42.852;23.042;2022-08-18T06:15:01;3.80;;;2.53;;
20012;SDS011;10167;42.852;23.042;2022-08-18T06:21:40;4.30;;;3.08;;
20012;SDS011;10167;42.852;23.042;2022-08-18T06:24:18;3.70;;;2.78;;
20012;SDS011;10167;42.852;23.042;2022-08-18T06:26:54;6.82;;;3.60;;
20012;SDS011;10167;42.852;23.042;2022-08-18T06:29:31;4.97;;;2.92;;
20012;SDS011;10167;42.852;23.042;2022-08-18T06:32:11;5.05;;;2.97;;
20012;SDS011;10167;42.852;23.042;2022-08-18T06:34:55;5.25;;;2.88;;
20012;SDS011;10167;42.852;23.042;2022-08-18T06:40:13;4.82;;;2.97;;
20012;SDS011;10167;42.852;23.042;2022-08-18T06:42:41;4.32;;;2.70;;
20012;SDS011;10167;42.852;23.042;2022-08-18T06:45:09;5.18;;;2.83;;
20012;SDS011;10167;42.852;23.042;2022-08-18T06:47:50;11.25;;;2.85;;
20012;SDS011;10167;42.852;23.042;2022-08-18T06:50:21;5.35;;;2.60;;
20012;SDS011;10167;42.852;23.042;2022-08-18T06:52:53;4.18;;;2.80;;
20012;SDS011;10167;42.852;23.042;2022-08-18T06:55:31;4.53;;;3.00;;
20012;SDS011;10167;42.852;23.042;2022-08-18T07:03:04;4.47;;;3.17;;
20012;SDS011;10167;42.852;23.042;2022-08-18T07:05:54;3.65;;;2.38;;
20012;SDS011;10167;42.852;23.042;2022-08-18T07:08:27;4.93;;;2.85;;
20012;SDS011;10167;42.852;23.042;2022-08-18T07:11:10;6.55;;;3.10;;
20012;SDS011;10167;42.852;23.042;2022-08-18T07:13:44;5.63;;;3.10;;
20012;SDS011;10167;42.852;23.042;2022-08-18T07:16:33;5.28;;;2.97;;
20012;SDS011;10167;42.852;23.042;2022-08-18T07:24:26;6.40;;;2.90;;
20012;SDS011;10167;42.852;23.042;2022-08-18T07:26:59;5.72;;;3.15;;
20012;SDS011;10167;42.852;23.042;2022-08-18T07:29:29;7.93;;;3.42;;
20012;SDS011;10167;42.852;23.042;2022-08-18T07:31:59;8.35;;;3.65;;
20012;SDS011;10167;42.852;23.042;2022-08-18T07:34:32;5.97;;;2.80;;
20012;SDS011;10167;42.852;23.042;2022-08-18T07:37:03;8.82;;;3.20;;
20012;SDS011;10167;42.852;23.042;2022-08-18T07:39:36;3.20;;;2.58;;
20012;SDS011;10167;42.852;23.042;2022-08-18T07:47:17;3.40;;;2.55;;
20012;SDS011;10167;42.852;23.042;2022-08-18T07:49:48;5.07;;;2.90;;
20012;SDS011;10167;42.852;23.042;2022-08-18T07:52:36;7.88;;;2.90;;
20012;SDS011;10167;42.852;23.042;2022-08-18T07:55:17;4.15;;;3.20;;
20012;SDS011;10167;42.852;23.042;2022-08-18T07:57:54;4.28;;;2.90;;
20012;SDS011;10167;42.852;23.042;2022-08-18T08:00:28;4.55;;;2.70;;
20012;SDS011;10167;42.852;23.042;2022-08-18T08:09:16;4.38;;;2.55;;
20012;SDS011;10167;42.852;23.042;2022-08-18T08:11:51;3.75;;;2.80;;
20012;SDS011;10167;42.852;23.042;2022-08-18T08:14:30;4.47;;;2.28;;
20012;SDS011;10167;42.852;23.042;2022-08-18T08:17:08;3.97;;;2.80;;
20012;SDS011;10167;42.852;23.042;2022-08-18T08:19:49;3.50;;;2.45;;
20012;SDS011;10167;42.852;23.042;2022-08-18T08:22:32;3.65;;;2.65;;
20012;SDS011;10167;42.852;23.042;2022-08-18T08:25:07;4.18;;;2.80;;
20012;SDS011;10167;42.852;23.042;2022-08-18T08:33:06;3.80;;;2.72;;
20012;SDS011;10167;42.852;23.042;2022-08-18T08:35:49;3.45;;;2.60;;
20012;SDS011;10167;42.852;23.042;2022-08-18T08:38:24;3.78;;;2.63;;
20012;SDS011;10167;42.852;23.042;2022-08-18T08:41:10;3.20;;;2.30;;
20012;SDS011;10167;42.852;23.042;2022-08-18T08:43:46;4.43;;;2.45;;
20012;SDS011;10167;42.852;23.042;2022-08-18T08:46:20;3.63;;;2.75;;
20012;SDS011;10167;42.852;23.042;2022-08-18T08:51:47;4.10;;;2.53;;
20012;SDS011;10167;42.852;23.042;2022-08-18T08:54:22;3.53;;;2.30;;
20012;SDS011;10167;42.852;23.042;2022-08-18T08:56:53;3.85;;;2.53;;
20012;SDS011;10167;42.852;23.042;2022-08-18T08:59:25;3.05;;;2.38;;
20012;SDS011;10167;42.852;23.042;2022-08-18T09:01:55;5.68;;;2.55;;
20012;SDS011;10167;42.852;23.042;2022-08-18T09:04:34;4.32;;;2.35;;
20012;SDS011;10167;42.852;23.042;2022-08-18T09:07:40;3.22;;;2.42;;
20012;SDS011;10167;42.852;23.042;2022-08-18T09:11:51;3.92;;;2.33;;
20012;SDS011;10167;42.852;23.042;2022-08-18T09:14:47;3.40;;;2.45;;
20012;SDS011;10167;42.852;23.042;2022-08-18T09:17:47;3.60;;;2.53;;
20012;SDS011;10167;42.852;23.042;2022-08-18T09:20:45;3.28;;;2.10;;
20012;SDS011;10167;42.852;23.042;2022-08-18T09:23:18;2.67;;;2.10;;
20012;SDS011;10167;42.852;23.042;2022-08-18T09:25:49;3.08;;;2.33;;
20012;SDS011;10167;42.852;23.042;2022-08-18T09:33:25;2.30;;;2.10;;
20012;SDS011;10167;42.852;23.042;2022-08-18T09:36:06;4.85;;;2.55;;
20012;SDS011;10167;42.852;23.042;2022-08-18T09:38:47;4.32;;;1.95;;
20012;SDS011;10167;42.852;23.042;2022-08-18T09:41:36;3.05;;;2.30;;
20012;SDS011;10167;42.852;23.042;2022-08-18T09:55:53;2.95;;;2.10;;
20012;SDS011;10167;42.852;23.042;2022-08-18T09:58:47;5.93;;;2.10;;
20012;SDS011;10167;42.852;23.042;2022-08-18T10:01:19;2.90;;;2.17;;
20012;SDS011;10167;42.852;23.042;2022-08-18T10:07:14;7.10;;;2.30;;
20012;SDS011;10167;42.852;23.042;2022-08-18T10:18:00;3.30;;;2.20;;
20012;SDS011;10167;42.852;23.042;2022-08-18T10:20:44;2.95;;;2.47;;
20012;SDS011;10167;42.852;23.042;2022-08-18T10:23:43;2.60;;;2.13;;
20012;SDS011;10167;42.852;23.042;2022-08-18T10:40:11;2.67;;;2.13;;
20012;SDS011;10167;42.852;23.042;2022-08-18T10:42:47;6.70;;;2.50;;
20012;SDS011;10167;42.852;23.042;2022-08-18T10:45:22;4.10;;;2.50;;
20012;SDS011;10167;42.852;23.042;2022-08-18T10:50:46;2.72;;;2.40;;
20012;SDS011;10167;42.852;23.042;2022-08-18T10:53:19;4.22;;;2.78;;
20012;SDS011;10167;42.852;23.042;2022-08-18T10:58:54;2.97;;;2.40;;
20012;SDS011;10167;42.852;23.042;2022-08-18T11:01:34;2.65;;;2.42;;
20012;SDS011;10167;42.852;23.042;2022-08-18T11:04:21;2.88;;;2.30;;
20012;SDS011;10167;42.852;23.042;2022-08-18T11:07:07;4.78;;;2.85;;
20012;SDS011;10167;42.852;23.042;2022-08-18T11:09:36;5.05;;;2.58;;
20012;SDS011;10167;42.852;23.042;2022-08-18T11:12:37;5.57;;;3.20;;
20012;SDS011;10167;42.852;23.042;2022-08-18T11:23:10;3.65;;;2.30;;
20012;SDS011;10167;42.852;23.042;2022-08-18T11:25:39;3.33;;;2.25;;
20012;SDS011;10167;42.852;23.042;2022-08-18T11:28:13;5.38;;;2.50;;
20012;SDS011;10167;42.852;23.042;2022-08-18T11:31:02;2.78;;;2.33;;
20012;SDS011;10167;42.852;23.042;2022-08-18T11:33:50;3.20;;;2.40;;
20012;SDS011;10167;42.852;23.042;2022-08-18T11:36:27;3.85;;;2.65;;
20012;SDS011;10167;42.852;23.042;2022-08-18T11:43:59;4.30;;;2.60;;
20012;SDS011;10167;42.852;23.042;2022-08-18T11:46:29;5.47;;;2.30;;
20012;SDS011;10167;42.852;23.042;2022-08-18T11:49:12;2.55;;;2.28;;
20012;SDS011;10167;42.852;23.042;2022-08-18T11:51:55;3.08;;;2.45;;
20012;SDS011;10167;42.852;23.042;2022-08-18T11:54:34;2.90;;;2.38;;
20012;SDS011;10167;42.852;23.042;2022-08-18T11:57:30;4.03;;;2.35;;
20012;SDS011;10167;42.852;23.042;2022-08-18T12:05:43;6.45;;;2.60;;
20012;SDS011;10167;42.852;23.042;2022-08-18T12:08:24;3.22;;;2.40;;
20012;SDS011;10167;42.852;23.042;2022-08-18T12:11:21;3.08;;;2.30;;
20012;SDS011;10167;42.852;23.042;2022-08-18T12:13:57;3.45;;;2.45;;
20012;SDS011;10167;42.852;23.042;2022-08-18T12:16:47;2.55;;;2.00;;
20012;SDS011;10167;42.852;23.042;2022-08-18T12:19:16;4.05;;;2.90;;
20012;SDS011;10167;42.852;23.042;2022-08-18T12:26:50;5.38;;;2.60;;
20012;SDS011;10167;42.852;23.042;2022-08-18T12:29:19;5.82;;;3.05;;
20012;SDS011;10167;42.852;23.042;2022-08-18T12:31:52;5.25;;;2.75;;
20012;SDS011;10167;42.852;23.042;2022-08-18T12:34:22;3.38;;;2.50;;
20012;SDS011;10167;42.852;23.042;2022-08-18T12:36:53;2.90;;;2.28;;
20012;SDS011;10167;42.852;23.042;2022-08-18T12:39:23;3.00;;;2.58;;
20012;SDS011;10167;42.852;23.042;2022-08-18T12:41:51;2.78;;;2.28;;
20012;SDS011;10167;42.852;23.042;2022-08-18T12:48:46;3.15;;;2.45;;
20012;SDS011;10167;42.852;23.042;2022-08-18T12:51:14;3.90;;;2.80;;
20012;SDS011;10167;42.852;23.042;2022-08-18T12:53:42;3.88;;;2.55;;
20012;SDS011;10167;42.852;23.042;2022-08-18T12:56:26;3.42;;;2.60;;
20012;SDS011;10167;42.852;23.042;2022-08-18T12:58:55;3.10;;;2.47;;
20012;SDS011;10167;42.852;23.042;2022-08-18T13:01:25;3.20;;;2.90;;
20012;SDS011;10167;42.852;23.042;2022-08-18T13:03:54;3.90;;;2.58;;
20012;SDS011;10167;42.852;23.042;2022-08-18T13:11:42;3.58;;;2.83;;
20012;SDS011;10167;42.852;23.042;2022-08-18T13:14:10;4.35;;;3.13;;
20012;SDS011;10167;42.852;23.042;2022-08-18T13:16:38;3.10;;;2.72;;
20012;SDS011;10167;42.852;23.042;2022-08-18T13:19:20;2.47;;;2.28;;
20012;SDS011;10167;42.852;23.042;2022-08-18T13:21:49;4.55;;;2.80;;
20012;SDS011;10167;42.852;23.042;2022-08-18T13:24:17;5.30;;;3.28;;
20012;SDS011;10167;42.852;23.042;2022-08-18T13:26:49;4.55;;;2.90;;
20012;SDS011;10167;42.852;23.042;2022-08-18T13:33:54;3.13;;;2.72;;
20012;SDS011;10167;42.852;23.042;2022-08-18T13:36:26;6.65;;;3.40;;
20012;SDS011;10167;42.852;23.042;2022-08-18T13:39:11;3.25;;;2.95;;
20012;SDS011;10167;42.852;23.042;2022-08-18T13:41:40;5.03;;;3.47;;
20012;SDS011;10167;42.852;23.042;2022-08-18T13:44:11;4.03;;;3.30;;
20012;SDS011;10167;42.852;23.042;2022-08-18T13:46:45;3.10;;;2.60;;
20012;SDS011;10167;42.852;23.042;2022-08-18T13:49:15;4.00;;;2.85;;
20012;SDS011;10167;42.852;23.042;2022-08-18T13:54:35;3.47;;;2.90;;
20012;SDS011;10167;42.852;23.042;2022-08-18T13:57:04;3.95;;;3.15;;
20012;SDS011;10167;42.852;23.042;2022-08-18T13:59:33;3.10;;;2.80;;
20012;SDS011;10167;42.852;23.042;2022-08-18T14:02:02;3.67;;;2.88;;
20012;SDS011;10167;42.852;23.042;2022-08-18T14:04:34;3.30;;;2.60;;
20012;SDS011;10167;42.852;23.042;2022-08-18T14:07:04;4.22;;;3.00;;
20012;SDS011;10167;42.852;23.042;2022-08-18T14:09:39;3.25;;;2.67;;
20012;SDS011;10167;42.852;23.042;2022-08-18T14:16:31;5.95;;;3.25;;
20012;SDS011;10167;42.852;23.042;2022-08-18T14:19:01;5.13;;;3.00;;
20012;SDS011;10167;42.852;23.042;2022-08-18T14:21:49;5.55;;;3.25;;
20012;SDS011;10167;42.852;23.042;2022-08-18T14:24:37;4.78;;;3.53;;
20012;SDS011;10167;42.852;23.042;2022-08-18T14:27:25;3.17;;;2.78;;
20012;SDS011;10167;42.852;23.042;2022-08-18T14:30:01;4.88;;;3.05;;
20012;SDS011;10167;42.852;23.042;2022-08-18T14:35:33;4.13;;;3.05;;
20012;SDS011;10167;42.852;23.042;2022-08-18T14:38:22;3.58;;;2.70;;
20012;SDS011;10167;42.852;23.042;2022-08-18T14:40:50;5.53;;;3.38;;
20012;SDS011;10167;42.852;23.042;2022-08-18T14:43:19;3.70;;;3.10;;
20012;SDS011;10167;42.852;23.042;2022-08-18T14:45:50;5.47;;;2.92;;
20012;SDS011;10167;42.852;23.042;2022-08-18T14:48:19;6.22;;;3.30;;
20012;SDS011;10167;42.852;23.042;2022-08-18T14:50:50;3.28;;;2.75;;
20012;SDS011;10167;42.852;23.042;2022-08-18T14:53:30;4.20;;;2.92;;
20012;SDS011;10167;42.852;23.042;2022-08-18T14:56:00;3.70;;;2.63;;
20012;SDS011;10167;42.852;23.042;2022-08-18T14:58:28;4.78;;;3.40;;
20012;SDS011;10167;42.852;23.042;2022-08-18T15:00:59;4.30;;;3.10;;
20012;SDS011;10167;42.852;23.042;2022-08-18T15:03:35;3.88;;;2.53;;
20012;SDS011;10167;42.852;23.042;2022-08-18T15:06:05;4.45;;;2.97;;
20012;SDS011;10167;42.852;23.042;2022-08-18T15:08:43;5.95;;;3.15;;
20012;SDS011;10167;42.852;23.042;2022-08-18T15:13:51;17.25;;;7.20;;
20012;SDS011;10167;42.852;23.042;2022-08-18T15:16:21;12.85;;;6.35;;
20012;SDS011;10167;42.852;23.042;2022-08-18T15:18:58;8.73;;;4.82;;
20012;SDS011;10167;42.852;23.042;2022-08-18T15:21:28;7.28;;;5.18;;
20012;SDS011;10167;42.852;23.042;2022-08-18T15:24:14;5.57;;;3.22;;
20012;SDS011;10167;42.852;23.042;2022-08-18T15:27:03;3.53;;;2.92;;
20012;SDS011;10167;42.852;23.042;2022-08-18T15:32:37;3.92;;;2.97;;
20012;SDS011;10167;42.852;23.042;2022-08-18T15:35:07;4.40;;;2.97;;
20012;SDS011;10167;42.852;23.042;2022-08-18T15:37:37;7.50;;;3.50;;
20012;SDS011;10167;42.852;23.042;2022-08-18T15:40:11;3.10;;;2.70;;
20012;SDS011;10167;42.852;23.042;2022-08-18T15:43:01;3.75;;;2.95;;
20012;SDS011;10167;42.852;23.042;2022-08-18T15:45:36;3.65;;;2.40;;
20012;SDS011;10167;42.852;23.042;2022-08-18T15:54:07;3.60;;;3.03;;
20012;SDS011;10167;42.852;23.042;2022-08-18T15:56:37;3.88;;;2.72;;
20012;SDS011;10167;42.852;23.042;2022-08-18T15:59:09;3.20;;;2.78;;
20012;SDS011;10167;42.852;23.042;2022-08-18T16:01:38;3.45;;;2.67;;
20012;SDS011;10167;42.852;23.042;2022-08-18T16:04:09;4.30;;;2.83;;
20012;SDS011;10167;42.852;23.042;2022-08-18T16:06:37;4.28;;;2.72;;
20012;SDS011;10167;42.852;23.042;2022-08-18T16:09:08;3.88;;;2.70;;
20012;SDS011;10167;42.852;23.042;2022-08-18T16:16:39;4.30;;;2.90;;
20012;SDS011;10167;42.852;23.042;2022-08-18T16:19:06;3.63;;;2.33;;
20012;SDS011;10167;42.852;23.042;2022-08-18T16:21:34;3.33;;;2.55;;
20012;SDS011;10167;42.852;23.042;2022-08-18T16:24:05;2.85;;;1.98;;
20012;SDS011;10167;42.852;23.042;2022-08-18T16:26:33;4.53;;;2.20;;
20012;SDS011;10167;42.852;23.042;2022-08-18T16:29:01;2.95;;;2.25;;
20012;SDS011;10167;42.852;23.042;2022-08-18T16:31:30;3.92;;;2.55;;
20012;SDS011;10167;42.852;23.042;2022-08-18T16:38:35;5.05;;;2.17;;
20012;SDS011;10167;42.852;23.042;2022-08-18T16:41:04;3.50;;;2.50;;
20012;SDS011;10167;42.852;23.042;2022-08-18T16:43:37;4.20;;;1.58;;
20012;SDS011;10167;42.852;23.042;2022-08-18T16:46:08;3.53;;;2.33;;
20012;SDS011;10167;42.852;23.042;2022-08-18T16:48:37;7.25;;;2.20;;
20012;SDS011;10167;42.852;23.042;2022-08-18T16:51:05;2.72;;;2.00;;
20012;SDS011;10167;42.852;23.042;2022-08-18T16:53:35;3.20;;;1.95;;
20012;SDS011;10167;42.852;23.042;2022-08-18T17:01:01;12.07;;;2.55;;
20012;SDS011;10167;42.852;23.042;2022-08-18T17:03:48;4.80;;;2.53;;
20012;SDS011;10167;42.852;23.042;2022-08-18T17:06:40;2.92;;;2.15;;
20012;SDS011;10167;42.852;23.042;2022-08-18T17:09:13;3.13;;;1.70;;
20012;SDS011;10167;42.852;23.042;2022-08-18T17:11:41;5.47;;;2.97;;
20012;SDS011;10167;42.852;23.042;2022-08-18T17:14:18;2.17;;;1.90;;
20012;SDS011;10167;42.852;23.042;2022-08-18T17:22:12;2.55;;;1.98;;
20012;SDS011;10167;42.852;23.042;2022-08-18T17:24:40;3.08;;;1.90;;
20012;SDS011;10167;42.852;23.042;2022-08-18T17:27:16;2.53;;;1.83;;
20012;SDS011;10167;42.852;23.042;2022-08-18T17:29:57;2.03;;;1.75;;
20012;SDS011;10167;42.852;23.042;2022-08-18T17:32:31;5.45;;;2.65;;
20012;SDS011;10167;42.852;23.042;2022-08-18T17:35:06;6.55;;;3.45;;
20012;SDS011;10167;42.852;23.042;2022-08-18T17:37:40;6.18;;;2.05;;
20012;SDS011;10167;42.852;23.042;2022-08-18T17:44:39;2.50;;;2.00;;
20012;SDS011;10167;42.852;23.042;2022-08-18T17:47:19;2.65;;;2.30;;
20012;SDS011;10167;42.852;23.042;2022-08-18T17:49:52;2.60;;;1.80;;
20012;SDS011;10167;42.852;23.042;2022-08-18T17:52:57;3.28;;;1.98;;
20012;SDS011;10167;42.852;23.042;2022-08-18T17:55:33;1.98;;;1.48;;
20012;SDS011;10167;42.852;23.042;2022-08-18T17:58:05;1.80;;;1.52;;
20012;SDS011;10167;42.852;23.042;2022-08-18T18:05:43;3.15;;;2.05;;
20012;SDS011;10167;42.852;23.042;2022-08-18T18:08:15;5.95;;;2.25;;
20012;SDS011;10167;42.852;23.042;2022-08-18T18:10:44;4.00;;;2.35;;
20012;SDS011;10167;42.852;23.042;2022-08-18T18:13:30;6.13;;;2.55;;
20012;SDS011;10167;42.852;23.042;2022-08-18T18:16:00;3.55;;;2.40;;
20012;SDS011;10167;42.852;23.042;2022-08-18T18:18:45;3.33;;;2.35;;
20012;SDS011;10167;42.852;23.042;2022-08-18T18:26:32;3.65;;;2.50;;
20012;SDS011;10167;42.852;23.042;2022-08-18T18:29:14;4.95;;;3.08;;
20012;SDS011;10167;42.852;23.042;2022-08-18T18:31:46;4.03;;;2.38;;
20012;SDS011;10167;42.852;23.042;2022-08-18T18:34:25;2.60;;;1.90;;
20012;SDS011;10167;42.852;23.042;2022-08-18T18:36:56;4.38;;;2.25;;
20012;SDS011;10167;42.852;23.042;2022-08-18T18:39:26;3.30;;;1.92;;
20012;SDS011;10167;42.852;23.042;2022-08-18T18:45:40;7.65;;;2.08;;
20012;SDS011;10167;42.852;23.042;2022-08-18T18:48:25;2.33;;;1.73;;
20012;SDS011;10167;42.852;23.042;2022-08-18T18:51:18;3.17;;;2.08;;
20012;SDS011;10167;42.852;23.042;2022-08-18T18:54:02;4.80;;;2.20;;
20012;SDS011;10167;42.852;23.042;2022-08-18T18:56:39;4.47;;;2.17;;
20012;SDS011;10167;42.852;23.042;2022-08-18T18:59:13;3.07;;;2.20;;
20012;SDS011;10167;42.852;23.042;2022-08-18T19:06:57;3.65;;;1.95;;
20012;SDS011;10167;42.852;23.042;2022-08-18T19:09:32;2.53;;;2.05;;
20012;SDS011;10167;42.852;23.042;2022-08-18T19:12:07;3.60;;;2.08;;
20012;SDS011;10167;42.852;23.042;2022-08-18T19:14:43;2.20;;;1.75;;
20012;SDS011;10167;42.852;23.042;2022-08-18T19:17:27;3.20;;;2.20;;
20012;SDS011;10167;42.852;23.042;2022-08-18T19:20:03;2.90;;;1.90;;
20012;SDS011;10167;42.852;23.042;2022-08-18T19:25:13;3.00;;;1.92;;
20012;SDS011;10167;42.852;23.042;2022-08-18T19:27:47;2.63;;;1.73;;
20012;SDS011;10167;42.852;23.042;2022-08-18T19:30:18;2.80;;;1.92;;
20012;SDS011;10167;42.852;23.042;2022-08-18T19:32:49;4.03;;;1.73;;
20012;SDS011;10167;42.852;23.042;2022-08-18T19:35:21;3.28;;;1.90;;
20012;SDS011;10167;42.852;23.042;2022-08-18T19:38:05;1.92;;;1.73;;
20012;SDS011;10167;42.852;23.042;2022-08-18T19:43:26;2.42;;;1.95;;
20012;SDS011;10167;42.852;23.042;2022-08-18T19:46:06;2.35;;;1.80;;
20012;SDS011;10167;42.852;23.042;2022-08-18T19:48:39;2.80;;;1.80;;
20012;SDS011;10167;42.852;23.042;2022-08-18T19:51:20;5.70;;;1.80;;